Date,TemperatureHighF,TemperatureAvgF,TemperatureLowF,DewpointHighF,DewpointAvgF,DewpointLowF,HumidityHigh,HumidityAvg,HumidityLow,PressureMaxIn,PressureMinIn,WindSpeedMaxMPH,WindSpeedAvgMPH,GustSpeedMaxMPH,PrecipitationSumIn
2013-10-1,61,51,45,21,19,17,34,28,21,0.00,40.00,6,5,24,0.00
2013-10-2,63,50,40,33,26,18,62,39,26,0.00,40.00,8,5,23,0.00
2013-10-3,58,47,35,35,26,8,76,47,23,0.00,40.00,14,9,42,0.00
2013-10-4,44,33,23,14,10,-1,62,39,20,0.00,40.00,7,5,16,0.00
2013-10-5,48,34,23,14,11,5,64,40,20,0.00,40.00,9,5,20,0.00
2013-10-6,64,44,32,18,12,0,47,30,11,0.00,40.00,6,5,14,0.00
2013-10-7,68,50,34,17,14,8,40,25,13,0.00,40.00,5,4,14,0.00
2013-10-8,59,47,39,21,16,12,42,29,17,0.00,40.00,9,7,29,0.00
2013-10-9,48,42,32,30,24,20,93,50,35,0.00,40.00,8,6,22,0.00
2013-10-10,38,31,27,31,28,23,96,89,62,0.00,40.00,8,5,29,0.41
2013-10-11,55,35,26,37,30,24,96,83,50,0.00,40.00,5,3,12,0.38
2013-10-12,52,39,27,30,25,-100,94,62,38,0.00,40.00,6,4,16,0.01
2013-10-13,48,39,32,30,26,19,80,60,44,0.00,40.00,10,7,26,0.01
2013-10-14,48,35,26,28,24,20,89,66,37,0.00,40.00,5,3,13,0.00
2013-10-15,42,32,25,27,23,20,83,70,49,0.00,40.00,5,4,11,0.04
2013-10-16,50,34,20,27,21,14,91,62,30,0.00,40.00,5,3,14,0.03
2013-10-17,55,42,26,17,10,0,63,28,18,0.00,40.00,6,4,16,0.00
2013-10-18,55,39,27,22,15,9,60,39,18,0.00,40.00,6,4,15,0.00
2013-10-19,58,42,29,20,10,-100,53,29,17,0.00,40.00,4,3,10,0.00
2013-10-20,61,46,34,13,8,1,33,22,14,0.00,40.00,6,4,16,0.00
2013-10-21,53,40,27,17,14,6,51,35,21,0.00,40.00,6,4,13,0.00
2013-10-22,59,42,26,17,12,5,45,30,16,0.00,40.00,5,4,10,0.00
2013-10-23,60,42,31,20,14,8,51,33,15,0.00,40.00,5,4,11,0.00
2013-10-24,56,42,35,26,20,12,66,42,26,0.00,40.00,6,3,14,0.00
2013-10-25,51,41,31,35,29,24,81,63,42,0.00,40.00,5,3,12,0.00
2013-10-26,56,40,28,27,20,-100,81,52,26,0.00,40.00,5,3,15,0.00
2013-10-27,57,43,29,29,23,18,68,46,29,0.00,40.00,10,5,24,0.00
2013-10-28,46,38,34,28,20,-100,74,52,40,0.00,40.00,14,10,37,0.00
2013-10-29,36,30,26,28,22,16,88,71,53,0.00,40.00,15,8,37,0.03
2013-10-30,37,28,22,25,21,18,92,77,55,0.00,40.00,6,3,19,0.03
2013-10-31,50,33,22,28,19,13,88,58,34,0.00,40.00,6,4,14,0.03